Latest Weather Observations for Busselton Airport

IDW60801

Issued at 6:02 pm WST Sunday 14 February 2016 (issued every 30 minutes, with the page automatically refreshed every 10 minutes)

About weather observations | Map of weather stations | Latest weather observations for WA | Other Formats
Station Details ID: 009603 Name: BUSSELTON AERO Lat: -33.69 Lon: 115.40 Height: 16.3 m
Data from the previous 72 hours. | See also: Recent months at Busselton Airport
Date/Time
WST
Temp
°C
App
Temp
°C
Dew
Point
Rel
Hum
%
Delta-T
°C
Wind Press
QNH
hPa
Press
MSL
hPa
Rain
since 9 am
mm
Dir
 
Spd
km/h
Gust
km/h
Spd
kts
Gust
kts
14/06:00pm 23.0 16.9 11.7 49 6.3 S 35 46 19 25 1020.9 1020.9 0.0
14/05:30pm 23.9 17.6 12.2 48 6.6 S 37 44 20 24 1020.7 1020.7 0.0
14/05:00pm 25.2 18.5 12.4 45 7.3 SSW 39 46 21 25 1020.4 1020.4 0.0
14/04:30pm 26.0 20.0 12.1 42 8.0 S 35 41 19 22 1020.4 1020.4 0.0
14/04:00pm 27.8 22.7 9.1 31 10.3 SSE 26 33 14 18 1020.3 1020.3 0.0
14/03:30pm 27.0 22.7 9.4 33 9.7 S 22 37 12 20 1020.3 1020.3 0.0
14/03:00pm 27.6 23.4 9.9 33 9.8 SE 22 35 12 19 1020.5 1020.5 0.0
14/02:30pm 26.4 22.7 9.3 34 9.4 S 19 32 10 17 1020.8 1020.8 0.0
14/02:00pm 26.7 22.0 9.1 33 9.6 S 24 32 13 17 1021.2 1021.2 0.0
14/01:30pm 26.2 22.5 9.5 35 9.2 SSE 19 32 10 17 1021.4 1021.4 0.0
14/01:00pm 26.8 22.9 9.6 34 9.5 SE 20 33 11 18 1021.7 1021.7 0.0
14/12:30pm 24.7 20.2 8.6 36 8.7 SSE 22 32 12 17 1022.3 1022.3 0.0
14/12:00pm 24.8 20.8 9.1 37 8.5 ESE 20 32 11 17 1022.6 1022.6 0.0
14/11:30am 23.5 19.5 9.1 40 7.8 SSE 20 32 11 17 1023.3 1023.3 0.0
14/11:00am 22.9 19.0 9.3 42 7.3 SSE 20 32 11 17 1023.7 1023.6 0.0
14/10:30am 22.2 17.9 9.4 44 6.9 ESE 22 32 12 17 1024.0 1023.9 0.0
14/10:00am 21.8 16.8 9.7 46 6.5 ESE 26 37 14 20 1024.1 1024.0 0.0
14/09:30am 20.7 16.5 9.6 49 5.9 SE 22 32 12 17 1024.4 1024.3 0.0
14/09:00am 20.1 15.1 9.4 50 5.7 SE 26 35 14 19 1024.7 1024.6 0.2
14/08:30am 19.4 15.0 9.0 51 5.5 SE 22 35 12 19 1024.6 1024.5 0.2
14/08:00am 17.9 14.0 9.3 57 4.5 SE 20 30 11 16 1024.8 1024.7 0.2
14/07:30am 17.1 14.2 9.5 61 4.0 SE 15 22 8 12 1025.0 1024.9 0.2
14/07:00am 15.5 12.6 9.8 69 3.0 SE 15 20 8 11 1025.0 1024.9 0.2
14/06:30am 14.4 11.9 9.8 74 2.4 SSE 13 17 7 9 1024.7 1024.6 0.2
14/06:00am 13.6 11.5 9.6 77 2.0 SSE 11 15 6 8 1024.2 1024.1 0.2
14/05:30am 13.2 10.9 8.9 75 2.2 SSE 11 13 6 7 1024.0 1023.9 0.2
14/05:00am 13.4 10.7 8.9 74 2.3 SSE 13 17 7 9 1023.6 1023.5 0.2
14/04:30am 13.8 10.8 9.3 74 2.3 SSE 15 19 8 10 1023.3 1023.3 0.2
14/04:00am 13.8 10.7 9.0 73 2.4 SSE 15 19 8 10 1023.2 1023.2 0.2
14/03:30am 13.5 11.0 8.4 71 2.5 SSE 11 15 6 8 1023.2 1023.2 0.2
14/03:00am 13.9 11.5 8.5 70 2.7 SSE 11 15 6 8 1023.0 1023.0 0.2
14/02:30am 14.1 11.3 8.5 69 2.8 SSE 13 17 7 9 1023.0 1023.0 0.2
14/02:00am 14.4 11.3 8.8 69 2.8 SSE 15 19 8 10 1023.2 1023.2 0.2
14/01:30am 14.2 11.4 8.6 69 2.8 SSE 13 17 7 9 1023.3 1023.3 0.2
14/01:00am 14.7 11.2 8.6 67 3.1 SE 17 22 9 12 1023.5 1023.4 0.2
14/12:30am 15.1 11.6 8.6 65 3.3 SSE 17 22 9 12 1023.6 1023.5 0.2
14/12:00am 15.6 11.7 8.8 64 3.5 SSE 19 28 10 15 1023.7 1023.6 0.2
 
Date/Time
WST
Temp
°C
App
Temp
°C
Dew
Point
Rel
Hum
%
Delta-T
°C
Wind Press
QNH
hPa
Press
MSL
hPa
Rain
since 9 am
mm
Dir
 
Spd
km/h
Gust
km/h
Spd
kts
Gust
kts
13/11:30pm 15.8 11.0 9.0 64 3.5 SSE 24 35 13 19 1023.8 1023.7 0.2
13/11:00pm 16.0 11.2 9.0 63 3.6 SSE 24 32 13 17 1024.0 1023.9 0.2
13/10:30pm 16.2 11.9 9.2 63 3.6 SSE 22 32 12 17 1024.0 1023.9 0.2
13/10:00pm 16.2 11.9 9.2 63 3.6 SSE 22 32 12 17 1024.0 1023.9 0.2
13/09:30pm 16.6 12.3 9.5 63 3.7 S 22 32 12 17 1024.1 1024.0 0.2
13/09:00pm 16.9 12.0 9.8 63 3.7 S 26 35 14 19 1023.8 1023.7 0.2
13/08:30pm 17.2 11.9 9.9 62 3.8 S 28 35 15 19 1023.5 1023.4 0.2
13/08:00pm 17.6 12.4 10.2 62 3.9 S 28 35 15 19 1023.1 1023.1 0.2
13/07:30pm 18.3 13.1 10.4 60 4.2 S 28 35 15 19 1022.6 1022.6 0.2
13/07:00pm 19.3 13.4 10.6 57 4.7 S 32 41 17 22 1022.2 1022.2 0.2
13/06:30pm 20.5 14.4 10.6 53 5.4 S 33 43 18 23 1021.8 1021.8 0.2
13/06:00pm 22.1 16.2 10.6 48 6.3 S 32 39 17 21 1021.4 1021.4 0.2
13/05:30pm 23.4 18.7 10.8 45 7.0 S 26 37 14 20 1020.9 1020.9 0.2
13/05:00pm 23.7 17.7 10.0 42 7.5 S 32 41 17 22 1020.7 1020.7 0.2
13/04:30pm 24.2 18.2 10.1 41 7.8 S 32 41 17 22 1021.0 1021.0 0.2
13/04:00pm 24.4 19.6 10.3 41 7.8 S 26 41 14 22 1021.0 1021.0 0.2
13/03:44pm 24.9 19.6 10.0 39 8.2 SSE 28 46 15 25 1021.0 1021.0 0.2
13/03:30pm 24.3 20.2 10.2 41 7.8 S 22 37 12 20 1020.9 1020.9 0.2
13/03:00pm 24.6 19.5 9.3 38 8.3 SSE 26 39 14 21 1021.4 1021.4 0.2
13/02:30pm 24.7 20.0 9.4 38 8.3 SSE 24 35 13 19 1021.5 1021.5 0.2
13/02:00pm 24.1 18.8 9.7 40 7.8 SSE 28 37 15 20 1021.8 1021.8 0.2
13/01:30pm 24.1 19.1 9.7 40 7.9 S 26 43 14 23 1022.0 1022.0 0.2
13/01:00pm 23.9 19.0 9.9 41 7.6 S 26 37 14 20 1022.4 1022.4 0.2
13/12:30pm 23.4 19.1 9.4 41 7.6 SSE 22 39 12 21 1022.9 1022.9 0.2
13/12:00pm 22.6 17.4 8.7 41 7.4 SSE 26 37 14 20 1023.3 1023.3 0.2
13/11:30am 22.7 17.7 9.5 43 7.1 SSE 26 37 14 20 1023.6 1023.5 0.2
13/11:00am 21.6 16.5 9.2 45 6.6 S 26 39 14 21 1024.1 1024.0 0.2
13/10:30am 20.4 14.8 8.7 47 6.1 S 28 37 15 20 1024.4 1024.3 0.2
13/10:00am 20.9 14.4 8.9 46 6.3 SE 33 43 18 23 1024.4 1024.3 0.2
13/09:30am 20.1 13.7 8.4 47 6.1 SSE 32 43 17 23 1024.7 1024.6 0.2
13/09:00am 19.2 14.3 8.5 50 5.5 SSE 24 35 13 19 1024.8 1024.7 0.0
13/08:30am 18.6 13.7 8.6 52 5.2 SSE 24 32 13 17 1024.6 1024.5 0.0
13/08:00am 17.4 14.1 9.6 60 4.1 SSE 17 22 9 12 1024.5 1024.4 0.0
13/07:30am 16.8 15.2 10.2 65 3.5 SE 9 15 5 8 1024.3 1024.2 0.0
13/07:00am 14.8 15.2 11.2 79 1.9 CALM 0 6 0 3 1024.1 1024.0 0.0
13/06:30am 12.5 11.4 9.9 84 1.3 S 6 6 3 3 1023.8 1023.7 0.0
13/06:00am 11.9 10.4 9.1 83 1.4 S 7 9 4 5 1023.5 1023.4 0.0
13/05:30am 11.2 9.1 8.2 82 1.5 SSE 9 11 5 6 1023.0 1023.0 0.0
13/05:00am 11.9 10.0 9.1 83 1.4 S 9 11 5 6 1022.6 1022.6 0.0
13/04:30am 12.4 10.9 9.2 81 1.6 SSE 7 9 4 5 1022.2 1022.2 0.0
13/04:00am 12.7 10.9 9.3 80 1.7 S 9 9 5 5 1022.1 1022.1 0.0
13/03:30am 13.7 12.0 9.9 78 2.0 S 9 9 5 5 1021.9 1021.9 0.0
13/03:00am 14.5 12.2 10.3 76 2.2 S 13 15 7 8 1021.7 1021.7 0.0
13/02:30am 15.2 12.7 11.0 76 2.2 S 15 20 8 11 1021.6 1021.6 0.0
13/02:00am 15.4 13.1 11.6 78 2.0 S 15 19 8 10 1021.3 1021.3 0.0
13/01:30am 15.6 13.4 12.0 79 2.0 S 15 17 8 9 1021.2 1021.2 0.0
13/01:00am 16.7 13.9 12.7 77 2.2 S 19 28 10 15 1021.2 1021.2 0.0
13/12:30am 16.8 14.0 13.3 80 2.0 S 20 24 11 13 1021.1 1021.1 0.0
13/12:00am 17.2 14.5 13.5 79 2.1 S 20 28 11 15 1021.0 1021.0 0.0
 
Date/Time
WST
Temp
°C
App
Temp
°C
Dew
Point
Rel
Hum
%
Delta-T
°C
Wind Press
QNH
hPa
Press
MSL
hPa
Rain
since 9 am
mm
Dir
 
Spd
km/h
Gust
km/h
Spd
kts
Gust
kts
12/11:30pm 17.4 14.8 13.7 79 2.1 S 20 28 11 15 1021.0 1021.0 0.0
12/11:00pm 17.4 15.4 13.9 80 2.0 S 17 22 9 12 1021.0 1021.0 0.0
12/10:30pm 17.6 16.0 13.9 79 2.1 S 15 19 8 10 1021.1 1021.1 0.0
12/10:00pm 18.4 16.0 13.9 75 2.6 S 19 26 10 14 1021.1 1021.1 0.0
12/09:30pm 19.1 16.8 14.6 75 2.6 S 20 30 11 16 1021.0 1021.0 0.0
12/09:00pm 18.9 16.8 14.8 77 2.4 S 19 22 10 12 1020.8 1020.8 0.0
12/08:30pm 19.2 16.6 14.9 76 2.5 S 22 28 12 15 1020.5 1020.5 0.0
12/08:00pm 19.5 16.9 15.0 75 2.6 S 22 30 12 16 1020.2 1020.2 0.0
12/07:30pm 20.5 17.2 15.1 71 3.2 S 26 33 14 18 1019.8 1019.8 0.0
12/07:00pm 21.8 18.1 14.9 65 4.1 S 28 35 15 19 1019.4 1019.4 0.0
12/06:30pm 22.7 19.7 14.8 61 4.7 S 24 39 13 21 1019.0 1019.0 0.0
12/06:00pm 22.8 18.2 15.1 62 4.6 S 33 41 18 22 1018.8 1018.8 0.0
12/05:30pm 24.5 20.6 15.4 57 5.5 S 30 39 16 21 1018.3 1018.3 0.0
12/05:00pm 25.8 22.2 15.2 52 6.4 S 28 37 15 20 1017.9 1017.9 0.0
12/04:30pm 26.5 22.6 14.3 47 7.3 S 28 35 15 19 1017.6 1017.6 0.0
12/04:00pm 27.0 23.1 14.4 46 7.5 SSW 28 37 15 20 1017.4 1017.4 0.0
12/03:30pm 27.9 24.8 14.5 44 8.1 S 24 35 13 19 1017.4 1017.4 0.0
12/03:00pm 27.3 23.5 13.6 43 8.1 SSW 26 35 14 19 1017.6 1017.6 0.0
12/02:30pm 26.8 23.5 13.9 45 7.7 S 24 33 13 18 1017.5 1017.5 0.0
12/02:00pm 27.0 23.6 13.7 44 7.9 SSW 24 33 13 18 1017.8 1017.8 0.0
12/01:30pm 27.8 24.2 14.1 43 8.2 S 26 37 14 20 1018.1 1018.1 0.0
12/01:00pm 26.6 23.6 13.7 45 7.6 S 22 35 12 19 1018.1 1018.1 0.0
12/12:30pm 25.6 23.2 13.8 48 7.0 S 19 30 10 16 1018.4 1018.4 0.0
12/12:00pm 25.0 21.5 13.5 48 6.7 S 24 33 13 18 1018.8 1018.8 0.0
12/11:30am 24.8 21.5 14.0 51 6.4 S 24 33 13 18 1019.1 1019.1 0.0
12/11:00am 23.2 20.3 13.9 56 5.4 SSW 22 30 12 16 1019.4 1019.4 0.0
12/10:30am 22.8 19.4 13.6 56 5.3 S 24 35 13 19 1019.8 1019.8 0.0
12/10:00am 22.5 19.5 13.6 57 5.1 SSE 22 33 12 18 1019.4 1019.4 0.0
12/09:30am 22.1 18.9 13.2 57 5.1 S 22 28 12 15 1019.4 1019.4 0.0
12/09:00am 21.1 18.3 13.3 61 4.5 S 20 28 11 15 1019.3 1019.3 0.0
12/08:30am 20.5 17.9 13.2 63 4.2 SSE 19 24 10 13 1019.2 1019.2 0.0
12/08:00am 20.1 16.9 13.1 64 4.0 SE 22 28 12 15 1019.1 1019.1 0.0
12/07:30am 19.8 18.1 13.5 67 3.6 SSE 15 20 8 11 1018.8 1018.8 0.0
12/07:00am 19.0 17.8 14.1 73 2.8 S 13 20 7 11 1018.8 1018.8 0.0
12/06:30am 18.3 17.9 14.2 77 2.4 SSE 9 17 5 9 1018.3 1018.3 0.0
12/06:00am 17.9 17.5 14.2 79 2.1 S 9 11 5 6 1017.7 1017.7 0.0
12/05:30am 17.8 17.0 14.1 79 2.1 S 11 15 6 8 1017.3 1017.3 0.0
12/05:00am 17.6 16.9 14.3 81 1.9 S 11 15 6 8 1016.7 1016.7 0.0
12/04:30am 17.7 16.2 14.2 80 2.0 S 15 20 8 11 1016.5 1016.5 0.0
12/04:00am 17.6 16.5 14.3 81 1.9 S 13 17 7 9 1016.0 1016.0 0.0
12/03:30am 17.7 16.2 14.2 80 2.0 SSE 15 19 8 10 1015.6 1015.6 0.0
12/03:00am 18.2 15.9 14.7 80 2.0 S 20 30 11 16 1015.3 1015.3 0.0
12/02:30am 18.2 16.2 14.9 81 1.9 S 19 24 10 13 1015.1 1015.1 0.0
12/02:00am 18.4 16.4 14.9 80 2.0 S 19 24 10 13 1015.2 1015.2 0.0
12/01:30am 18.6 16.0 14.9 79 2.2 S 22 28 12 15 1015.5 1015.5 0.0
12/01:00am 18.6 16.5 15.1 80 2.0 S 20 28 11 15 1015.7 1015.7 0.0
12/12:30am 18.7 15.9 15.4 81 1.9 S 24 32 13 17 1015.8 1015.8 0.0
12/12:00am 18.7 16.4 15.8 83 1.7 S 22 30 12 16 1015.8 1015.8 0.0
 
Date/Time
WST
Temp
°C
App
Temp
°C
Dew
Point
Rel
Hum
%
Delta-T
°C
Wind Press
QNH
hPa
Press
MSL
hPa
Rain
since 9 am
mm
Dir
 
Spd
km/h
Gust
km/h
Spd
kts
Gust
kts
11/11:30pm 19.0 17.4 16.0 83 1.8 SSW 19 24 10 13 1016.0 1016.0 0.0
11/11:00pm 19.2 17.1 16.1 82 1.8 S 22 28 12 15 1015.8 1015.8 0.0
11/10:30pm 19.1 17.5 16.0 82 1.8 S 19 24 10 13 1015.7 1015.7 0.0
11/10:00pm 19.5 17.8 16.2 81 2.0 S 20 28 11 15 1015.6 1015.6 0.0
11/09:30pm 19.8 18.2 16.4 81 2.0 S 20 28 11 15 1015.5 1015.5 0.0
11/09:00pm 19.9 17.5 16.3 80 2.2 SSW 24 32 13 17 1015.3 1015.3 0.0
11/08:30pm 20.1 17.7 16.3 79 2.3 S 24 32 13 17 1014.7 1014.7 0.0
11/08:00pm 20.9 17.3 16.3 75 2.8 SSW 30 35 16 19 1014.7 1014.7 0.0
11/07:30pm 22.1 19.6 16.1 69 3.6 SSW 24 32 13 17 1014.0 1014.0 0.0
11/07:00pm 23.6 20.1 16.4 64 4.4 SSW 30 39 16 21 1013.4 1013.4 0.0
11/06:30pm 25.5 22.8 16.6 58 5.5 S 26 33 14 18 1012.8 1012.8 0.0

Other Formats:

Comma delimited format used in spreadsheet applications
http://www.bom.gov.au/fwo/IDW60801/IDW60801.95611.axf

JavaScript Object Notation format (JSON) in row-major order
http://www.bom.gov.au/fwo/IDW60801/IDW60801.95611.json